Blue Mountain, AL

7:13 AM CDT on August 23, 2014 (GMT -0500)
RAWS MT. LONGLEAF AL US | Change Station
CLOSE
Current Station
Personal Weather Station
Location: Fort McClellan, AL
Elevation: 1049 ft
Nearby Weather Stations

Elev 1049 ft 33.72 °N, 85.76 °W | Updated 27 minutes ago

Clear
Clear
72 °F
Feels Like 72 °F
N
3
Wind Variable Wind from East
Gusts 4.0 mph

Today
High -- | Low -- °F
--% Chance of Precip.
Yesterday
High -- | Low -- °F
Precip. -- in
6:10 AM 7:20 PM
Waning Crescent, 4% visible
Pressure 30.01 in
Visibility 4.0 miles
Clouds Clear
Dew Point 70 °F
Humidity 92%
Rainfall 0.00 in
Snow Depth Not available.
UV 0 out of 12
Pollen 9.50 out of 12
Ozone Good
PM2.5 Moderate
Flu Activity Not available.
METAR KANB 231053Z AUTO 00000KT 4SM BR CLR 22/21 A3003 RMK AO2 SLP161 T02170211

More Conditions Fewer Conditions

Pressure 30.01 in
Visibility 4.0 miles
Clouds Clear
Dew Point 70 °F
Humidity 92%
Rainfall 0.00 in
Snow Depth Not available.
UV 0 out of 12
Pollen 9.50 out of 12
Ozone Good
PM2.5 Moderate
Flu Activity Not available.
METAR KANB 231053Z AUTO 00000KT 4SM BR CLR 22/21 A3003 RMK AO2 SLP161 T02170211

More Conditions Fewer Conditions

10-Day Weather Forecast

Almanac

Astronomy

Aug. 23, 2014 Rise Set
Actual Time 6:10 AM CDT 7:20 PM CDT
Civil Twilight 5:45 AM CDT 7:46 PM CDT
Nautical Twilight 5:14 AM CDT 8:16 PM CDT
Astronomical Twilight 4:42 AM CDT 8:48 PM CDT
Moon 4:28 AM CDT 6:03 PM CDT
Length of Visible Light 14h 00m
Length of Day
13h 09m
Tomorrow will be 1m 55s shorter.
Waning Crescent, 4% of the Moon is Illuminated
Today
Waning Crescent
Aug 25
New
Sep 2
First Quarter
Sep 8
Full
Sep 15
Last Quarter

Today's Extremes

State Highs State Lows

Community

WunderPhotos

Upload Photos

1,746,424 photos uploaded!

WunderBlogs® & News

By Dr. Jeff Masters
Director of Meteorology, Weather Underground
By Kari Strenfel
Meteorologist, Weather Underground
By Christopher C. Burt
Weather Historian, Weather Underground
August 23, 2014
August 23, 2014
August 23, 2014

Nearby

Air Quality

  Air Quality AQ Index Pollutant
Yesterday Good
PM10
Yesterday Good
OZONE
Current Moderate
PM2.5
Current Good
OZONE
Saturday Moderate
PM2.5
Saturday Good
OZONE
Sunday Moderate
PM2.5
Sunday Good
OZONE
Monday Moderate
PM2.5
Monday Good
OZONE

Snow Depth

Station Depth Elevation
No new snow has been reported.

Earthquake Activity

City Distance Mag. Time & Date
No recent earthquake activity has been reported nearby.
Minimum magnitude displayed is 2.5.

Coastal Water Temperatures

Place Temperature
No Stations Reporting

Nearby Weather Stations